sensor_id;sensor_type;location;lat;lon;timestamp;P1;durP1;ratioP1;P2;durP2;ratioP2
48795;SDS011;34607;48.520;-1.330;2023-02-19T09:16:59;12.13;;;3.05;;
48795;SDS011;34607;48.520;-1.330;2023-02-19T09:19:27;10.70;;;2.47;;
48795;SDS011;34607;48.520;-1.330;2023-02-19T09:21:54;12.45;;;3.65;;
48795;SDS011;34607;48.520;-1.330;2023-02-19T09:24:22;15.45;;;3.15;;
48795;SDS011;34607;48.520;-1.330;2023-02-19T09:26:49;9.80;;;2.45;;
48795;SDS011;34607;48.520;-1.330;2023-02-19T09:29:17;10.77;;;2.30;;
48795;SDS011;34607;48.520;-1.330;2023-02-19T09:31:44;9.18;;;2.53;;
48795;SDS011;34607;48.520;-1.330;2023-02-19T09:34:13;12.70;;;3.38;;
48795;SDS011;34607;48.520;-1.330;2023-02-19T09:36:40;7.65;;;2.67;;
48795;SDS011;34607;48.520;-1.330;2023-02-19T09:39:08;10.77;;;2.40;;
48795;SDS011;34607;48.520;-1.330;2023-02-19T09:41:37;10.13;;;2.50;;
48795;SDS011;34607;48.520;-1.330;2023-02-19T09:44:09;18.23;;;3.60;;
48795;SDS011;34607;48.520;-1.330;2023-02-19T09:46:39;12.90;;;2.70;;
48795;SDS011;34607;48.520;-1.330;2023-02-19T09:49:10;10.18;;;2.83;;
48795;SDS011;34607;48.520;-1.330;2023-02-19T09:51:41;11.98;;;2.90;;
48795;SDS011;34607;48.520;-1.330;2023-02-19T09:54:15;8.77;;;2.50;;
48795;SDS011;34607;48.520;-1.330;2023-02-19T09:56:46;8.95;;;2.70;;
48795;SDS011;34607;48.520;-1.330;2023-02-19T09:59:15;13.15;;;3.38;;
48795;SDS011;34607;48.520;-1.330;2023-02-19T10:01:47;11.20;;;3.38;;
48795;SDS011;34607;48.520;-1.330;2023-02-19T10:04:19;11.57;;;3.00;;
48795;SDS011;34607;48.520;-1.330;2023-02-19T10:06:46;8.98;;;2.80;;
48795;SDS011;34607;48.520;-1.330;2023-02-19T10:09:18;10.63;;;3.10;;
48795;SDS011;34607;48.520;-1.330;2023-02-19T10:11:48;14.25;;;2.90;;
48795;SDS011;34607;48.520;-1.330;2023-02-19T10:14:16;13.57;;;2.92;;
48795;SDS011;34607;48.520;-1.330;2023-02-19T10:16:47;12.50;;;2.92;;
48795;SDS011;34607;48.520;-1.330;2023-02-19T10:19:15;9.77;;;2.42;;
48795;SDS011;34607;48.520;-1.330;2023-02-19T10:21:44;8.90;;;2.60;;
48795;SDS011;34607;48.520;-1.330;2023-02-19T10:24:13;13.57;;;4.10;;
48795;SDS011;34607;48.520;-1.330;2023-02-19T10:26:46;13.15;;;3.03;;
48795;SDS011;34607;48.520;-1.330;2023-02-19T10:29:13;11.18;;;2.60;;
48795;SDS011;34607;48.520;-1.330;2023-02-19T10:31:40;7.45;;;2.08;;
48795;SDS011;34607;48.520;-1.330;2023-02-19T10:34:15;14.15;;;2.60;;
48795;SDS011;34607;48.520;-1.330;2023-02-19T10:36:48;11.45;;;2.28;;
48795;SDS011;34607;48.520;-1.330;2023-02-19T10:42:12;12.70;;;2.85;;
48795;SDS011;34607;48.520;-1.330;2023-02-19T10:44:42;13.57;;;2.40;;
48795;SDS011;34607;48.520;-1.330;2023-02-19T10:47:14;19.40;;;2.90;;
48795;SDS011;34607;48.520;-1.330;2023-02-19T10:49:43;12.13;;;3.17;;
48795;SDS011;34607;48.520;-1.330;2023-02-19T10:52:15;11.02;;;2.75;;
48795;SDS011;34607;48.520;-1.330;2023-02-19T10:54:48;8.73;;;2.30;;
48795;SDS011;34607;48.520;-1.330;2023-02-19T10:57:24;10.55;;;2.65;;
48795;SDS011;34607;48.520;-1.330;2023-02-19T10:59:57;12.43;;;2.28;;
48795;SDS011;34607;48.520;-1.330;2023-02-19T11:02:27;12.38;;;2.63;;
48795;SDS011;34607;48.520;-1.330;2023-02-19T11:05:03;8.30;;;2.10;;
48795;SDS011;34607;48.520;-1.330;2023-02-19T11:07:34;10.30;;;3.55;;
48795;SDS011;34607;48.520;-1.330;2023-02-19T11:10:02;10.90;;;2.75;;
48795;SDS011;34607;48.520;-1.330;2023-02-19T11:12:31;16.27;;;4.03;;
48795;SDS011;34607;48.520;-1.330;2023-02-19T11:15:03;22.42;;;2.85;;
48795;SDS011;34607;48.520;-1.330;2023-02-19T11:18:00;8.32;;;2.13;;
48795;SDS011;34607;48.520;-1.330;2023-02-19T11:20:31;17.17;;;2.83;;
48795;SDS011;34607;48.520;-1.330;2023-02-19T11:23:02;11.15;;;2.45;;
48795;SDS011;34607;48.520;-1.330;2023-02-19T11:25:43;8.20;;;2.25;;
48795;SDS011;34607;48.520;-1.330;2023-02-19T11:28:19;16.00;;;2.22;;
48795;SDS011;34607;48.520;-1.330;2023-02-19T11:30:52;9.00;;;2.33;;
48795;SDS011;34607;48.520;-1.330;2023-02-19T11:33:21;6.40;;;2.40;;
48795;SDS011;34607;48.520;-1.330;2023-02-19T11:35:53;11.30;;;2.20;;
48795;SDS011;34607;48.520;-1.330;2023-02-19T11:38:27;10.60;;;2.40;;
48795;SDS011;34607;48.520;-1.330;2023-02-19T11:40:56;9.20;;;2.33;;
48795;SDS011;34607;48.520;-1.330;2023-02-19T11:43:41;10.25;;;2.40;;
48795;SDS011;34607;48.520;-1.330;2023-02-19T11:46:21;11.32;;;2.25;;
48795;SDS011;34607;48.520;-1.330;2023-02-19T11:49:03;15.57;;;3.38;;
48795;SDS011;34607;48.520;-1.330;2023-02-19T11:51:48;11.45;;;2.65;;
48795;SDS011;34607;48.520;-1.330;2023-02-19T11:57:19;10.07;;;2.42;;
48795;SDS011;34607;48.520;-1.330;2023-02-19T11:59:58;11.60;;;2.38;;
48795;SDS011;34607;48.520;-1.330;2023-02-19T12:02:43;10.65;;;2.20;;
48795;SDS011;34607;48.520;-1.330;2023-02-19T12:08:45;9.40;;;1.88;;
48795;SDS011;34607;48.520;-1.330;2023-02-19T12:11:29;12.73;;;2.63;;
48795;SDS011;34607;48.520;-1.330;2023-02-19T12:14:19;9.18;;;2.65;;
48795;SDS011;34607;48.520;-1.330;2023-02-19T12:17:06;10.77;;;2.75;;
48795;SDS011;34607;48.520;-1.330;2023-02-19T12:19:42;9.43;;;2.50;;
48795;SDS011;34607;48.520;-1.330;2023-02-19T12:25:20;11.60;;;2.85;;
48795;SDS011;34607;48.520;-1.330;2023-02-19T12:28:01;12.23;;;3.33;;
48795;SDS011;34607;48.520;-1.330;2023-02-19T12:30:44;16.10;;;2.70;;
48795;SDS011;34607;48.520;-1.330;2023-02-19T12:33:50;12.55;;;3.08;;
48795;SDS011;34607;48.520;-1.330;2023-02-19T12:36:42;12.60;;;3.40;;
48795;SDS011;34607;48.520;-1.330;2023-02-19T12:39:21;12.23;;;3.00;;
48795;SDS011;34607;48.520;-1.330;2023-02-19T12:41:56;10.93;;;3.25;;
48795;SDS011;34607;48.520;-1.330;2023-02-19T12:44:32;12.53;;;2.87;;
48795;SDS011;34607;48.520;-1.330;2023-02-19T12:47:06;16.65;;;2.67;;
48795;SDS011;34607;48.520;-1.330;2023-02-19T12:49:42;13.13;;;2.60;;
48795;SDS011;34607;48.520;-1.330;2023-02-19T12:52:15;8.52;;;2.45;;
48795;SDS011;34607;48.520;-1.330;2023-02-19T12:54:46;8.55;;;2.20;;
48795;SDS011;34607;48.520;-1.330;2023-02-19T12:57:17;13.07;;;3.40;;
48795;SDS011;34607;48.520;-1.330;2023-02-19T12:59:50;7.47;;;2.10;;
48795;SDS011;34607;48.520;-1.330;2023-02-19T13:02:25;12.82;;;2.65;;
48795;SDS011;34607;48.520;-1.330;2023-02-19T13:05:00;11.43;;;2.63;;
48795;SDS011;34607;48.520;-1.330;2023-02-19T13:07:34;13.52;;;3.65;;
48795;SDS011;34607;48.520;-1.330;2023-02-19T13:10:06;10.75;;;3.15;;
48795;SDS011;34607;48.520;-1.330;2023-02-19T13:12:50;10.68;;;2.70;;
48795;SDS011;34607;48.520;-1.330;2023-02-19T13:15:23;12.63;;;2.97;;
48795;SDS011;34607;48.520;-1.330;2023-02-19T13:17:56;14.63;;;3.47;;
48795;SDS011;34607;48.520;-1.330;2023-02-19T13:20:28;12.13;;;2.75;;
48795;SDS011;34607;48.520;-1.330;2023-02-19T13:22:59;8.43;;;2.83;;
48795;SDS011;34607;48.520;-1.330;2023-02-19T13:25:55;12.32;;;3.22;;
48795;SDS011;34607;48.520;-1.330;2023-02-19T13:28:41;14.10;;;3.70;;
48795;SDS011;34607;48.520;-1.330;2023-02-19T13:31:27;12.15;;;2.92;;
48795;SDS011;34607;48.520;-1.330;2023-02-19T13:34:11;10.25;;;3.15;;
48795;SDS011;34607;48.520;-1.330;2023-02-19T13:36:44;10.25;;;2.63;;
48795;SDS011;34607;48.520;-1.330;2023-02-19T13:39:14;15.63;;;2.60;;
48795;SDS011;34607;48.520;-1.330;2023-02-19T13:41:48;11.38;;;3.22;;
48795;SDS011;34607;48.520;-1.330;2023-02-19T13:44:17;14.43;;;3.42;;
48795;SDS011;34607;48.520;-1.330;2023-02-19T13:46:47;16.77;;;3.10;;
48795;SDS011;34607;48.520;-1.330;2023-02-19T13:49:23;9.00;;;2.67;;
48795;SDS011;34607;48.520;-1.330;2023-02-19T13:52:04;10.93;;;2.63;;
48795;SDS011;34607;48.520;-1.330;2023-02-19T14:04:50;11.55;;;2.88;;
48795;SDS011;34607;48.520;-1.330;2023-02-19T14:19:45;12.85;;;3.20;;
48795;SDS011;34607;48.520;-1.330;2023-02-19T14:28:18;7.93;;;2.10;;
48795;SDS011;34607;48.520;-1.330;2023-02-19T14:30:55;6.95;;;2.30;;
48795;SDS011;34607;48.520;-1.330;2023-02-19T14:33:26;12.95;;;2.55;;
48795;SDS011;34607;48.520;-1.330;2023-02-19T14:35:56;13.48;;;2.47;;
48795;SDS011;34607;48.520;-1.330;2023-02-19T14:38:33;11.80;;;2.60;;
48795;SDS011;34607;48.520;-1.330;2023-02-19T14:41:04;10.95;;;2.75;;
48795;SDS011;34607;48.520;-1.330;2023-02-19T14:43:32;9.38;;;2.28;;
48795;SDS011;34607;48.520;-1.330;2023-02-19T14:46:02;8.48;;;2.42;;
48795;SDS011;34607;48.520;-1.330;2023-02-19T14:48:35;10.90;;;3.13;;
48795;SDS011;34607;48.520;-1.330;2023-02-19T14:51:06;10.32;;;2.28;;
48795;SDS011;34607;48.520;-1.330;2023-02-19T14:53:40;12.07;;;2.60;;
48795;SDS011;34607;48.520;-1.330;2023-02-19T14:56:15;14.05;;;2.42;;
48795;SDS011;34607;48.520;-1.330;2023-02-19T14:58:45;13.98;;;3.10;;
48795;SDS011;34607;48.520;-1.330;2023-02-19T15:01:32;11.82;;;2.17;;
48795;SDS011;34607;48.520;-1.330;2023-02-19T15:03:59;14.07;;;3.58;;
48795;SDS011;34607;48.520;-1.330;2023-02-19T15:06:26;15.15;;;4.38;;
48795;SDS011;34607;48.520;-1.330;2023-02-19T15:08:58;10.45;;;3.50;;
48795;SDS011;34607;48.520;-1.330;2023-02-19T15:11:28;10.88;;;2.40;;
48795;SDS011;34607;48.520;-1.330;2023-02-19T15:13:59;6.18;;;2.60;;
48795;SDS011;34607;48.520;-1.330;2023-02-19T15:16:28;7.30;;;2.22;;
48795;SDS011;34607;48.520;-1.330;2023-02-19T15:18:57;13.05;;;2.42;;
48795;SDS011;34607;48.520;-1.330;2023-02-19T15:21:26;12.38;;;3.00;;
48795;SDS011;34607;48.520;-1.330;2023-02-19T15:23:55;13.38;;;2.40;;
48795;SDS011;34607;48.520;-1.330;2023-02-19T15:26:28;13.10;;;3.38;;
48795;SDS011;34607;48.520;-1.330;2023-02-19T15:29:00;10.20;;;3.73;;
48795;SDS011;34607;48.520;-1.330;2023-02-19T15:31:29;13.25;;;3.63;;
48795;SDS011;34607;48.520;-1.330;2023-02-19T15:33:56;9.23;;;2.53;;
48795;SDS011;34607;48.520;-1.330;2023-02-19T15:36:27;9.50;;;2.78;;
48795;SDS011;34607;48.520;-1.330;2023-02-19T15:38:59;7.80;;;3.10;;
48795;SDS011;34607;48.520;-1.330;2023-02-19T15:41:28;9.55;;;2.17;;
48795;SDS011;34607;48.520;-1.330;2023-02-19T15:44:09;6.72;;;2.72;;
48795;SDS011;34607;48.520;-1.330;2023-02-19T15:46:48;14.88;;;2.75;;
48795;SDS011;34607;48.520;-1.330;2023-02-19T15:49:16;10.60;;;2.08;;
48795;SDS011;34607;48.520;-1.330;2023-02-19T15:51:50;9.85;;;2.70;;
48795;SDS011;34607;48.520;-1.330;2023-02-19T15:54:26;9.57;;;2.63;;
48795;SDS011;34607;48.520;-1.330;2023-02-19T15:56:59;14.15;;;2.70;;
48795;SDS011;34607;48.520;-1.330;2023-02-19T15:59:31;15.10;;;2.70;;
48795;SDS011;34607;48.520;-1.330;2023-02-19T16:02:02;9.35;;;2.65;;
48795;SDS011;34607;48.520;-1.330;2023-02-19T16:04:30;12.63;;;2.50;;
48795;SDS011;34607;48.520;-1.330;2023-02-19T16:07:00;14.13;;;2.90;;
48795;SDS011;34607;48.520;-1.330;2023-02-19T16:09:30;16.65;;;2.88;;
48795;SDS011;34607;48.520;-1.330;2023-02-19T16:12:00;12.30;;;4.93;;
48795;SDS011;34607;48.520;-1.330;2023-02-19T16:14:29;11.18;;;3.10;;
48795;SDS011;34607;48.520;-1.330;2023-02-19T16:16:59;16.67;;;2.83;;
48795;SDS011;34607;48.520;-1.330;2023-02-19T16:19:34;10.90;;;2.75;;
48795;SDS011;34607;48.520;-1.330;2023-02-19T16:22:11;9.68;;;2.72;;
48795;SDS011;34607;48.520;-1.330;2023-02-19T16:24:43;8.45;;;2.72;;
48795;SDS011;34607;48.520;-1.330;2023-02-19T16:27:12;15.45;;;3.08;;
48795;SDS011;34607;48.520;-1.330;2023-02-19T16:29:51;11.50;;;2.67;;
48795;SDS011;34607;48.520;-1.330;2023-02-19T16:32:19;12.95;;;3.25;;
48795;SDS011;34607;48.520;-1.330;2023-02-19T16:34:47;12.50;;;3.30;;
48795;SDS011;34607;48.520;-1.330;2023-02-19T16:37:35;10.52;;;3.88;;
48795;SDS011;34607;48.520;-1.330;2023-02-19T16:43:25;9.15;;;2.90;;
48795;SDS011;34607;48.520;-1.330;2023-02-19T16:45:54;10.18;;;2.67;;
48795;SDS011;34607;48.520;-1.330;2023-02-19T16:48:22;8.30;;;2.90;;
48795;SDS011;34607;48.520;-1.330;2023-02-19T16:50:49;11.10;;;4.10;;
48795;SDS011;34607;48.520;-1.330;2023-02-19T16:53:18;10.40;;;3.20;;
48795;SDS011;34607;48.520;-1.330;2023-02-19T16:55:46;13.07;;;3.33;;
48795;SDS011;34607;48.520;-1.330;2023-02-19T16:58:13;8.63;;;3.03;;
48795;SDS011;34607;48.520;-1.330;2023-02-19T17:00:42;11.75;;;3.60;;
48795;SDS011;34607;48.520;-1.330;2023-02-19T17:03:10;8.68;;;3.45;;
48795;SDS011;34607;48.520;-1.330;2023-02-19T17:05:41;6.75;;;3.05;;
48795;SDS011;34607;48.520;-1.330;2023-02-19T17:08:16;9.15;;;3.15;;
48795;SDS011;34607;48.520;-1.330;2023-02-19T17:10:51;12.75;;;3.55;;
48795;SDS011;34607;48.520;-1.330;2023-02-19T17:13:18;11.15;;;4.15;;
48795;SDS011;34607;48.520;-1.330;2023-02-19T17:15:47;16.13;;;3.92;;
48795;SDS011;34607;48.520;-1.330;2023-02-19T17:18:14;8.77;;;2.70;;
48795;SDS011;34607;48.520;-1.330;2023-02-19T17:20:41;11.88;;;3.22;;
48795;SDS011;34607;48.520;-1.330;2023-02-19T17:23:14;12.10;;;3.60;;
48795;SDS011;34607;48.520;-1.330;2023-02-19T17:25:41;10.68;;;3.08;;
48795;SDS011;34607;48.520;-1.330;2023-02-19T17:28:08;9.27;;;3.45;;
48795;SDS011;34607;48.520;-1.330;2023-02-19T17:30:35;10.50;;;3.15;;
48795;SDS011;34607;48.520;-1.330;2023-02-19T17:33:04;8.27;;;3.83;;
48795;SDS011;34607;48.520;-1.330;2023-02-19T17:35:31;12.38;;;5.32;;
48795;SDS011;34607;48.520;-1.330;2023-02-19T17:37:58;16.05;;;7.25;;
48795;SDS011;34607;48.520;-1.330;2023-02-19T17:40:26;16.30;;;6.68;;
48795;SDS011;34607;48.520;-1.330;2023-02-19T17:42:55;14.80;;;5.38;;
48795;SDS011;34607;48.520;-1.330;2023-02-19T17:45:22;8.85;;;4.15;;
48795;SDS011;34607;48.520;-1.330;2023-02-19T17:47:49;15.00;;;5.65;;
48795;SDS011;34607;48.520;-1.330;2023-02-19T17:50:19;19.77;;;6.38;;
48795;SDS011;34607;48.520;-1.330;2023-02-19T17:52:47;10.82;;;3.88;;
48795;SDS011;34607;48.520;-1.330;2023-02-19T17:55:15;10.65;;;4.47;;
48795;SDS011;34607;48.520;-1.330;2023-02-19T17:57:43;11.48;;;5.10;;
48795;SDS011;34607;48.520;-1.330;2023-02-19T18:00:12;18.58;;;5.78;;
48795;SDS011;34607;48.520;-1.330;2023-02-19T18:02:40;14.38;;;7.75;;
48795;SDS011;34607;48.520;-1.330;2023-02-19T18:05:07;17.02;;;6.75;;
48795;SDS011;34607;48.520;-1.330;2023-02-19T18:07:36;11.15;;;4.95;;
48795;SDS011;34607;48.520;-1.330;2023-02-19T18:10:04;17.35;;;5.60;;
48795;SDS011;34607;48.520;-1.330;2023-02-19T18:12:32;14.85;;;5.05;;
48795;SDS011;34607;48.520;-1.330;2023-02-19T18:14:59;9.35;;;4.68;;
48795;SDS011;34607;48.520;-1.330;2023-02-19T18:17:26;17.45;;;10.57;;
48795;SDS011;34607;48.520;-1.330;2023-02-19T18:19:53;24.67;;;13.50;;
48795;SDS011;34607;48.520;-1.330;2023-02-19T18:22:20;22.27;;;14.00;;
48795;SDS011;34607;48.520;-1.330;2023-02-19T18:24:49;27.02;;;16.33;;
48795;SDS011;34607;48.520;-1.330;2023-02-19T18:27:18;20.13;;;12.10;;
48795;SDS011;34607;48.520;-1.330;2023-02-19T18:29:48;15.65;;;7.40;;
48795;SDS011;34607;48.520;-1.330;2023-02-19T18:32:16;21.17;;;10.27;;
48795;SDS011;34607;48.520;-1.330;2023-02-19T18:34:46;19.10;;;10.15;;
48795;SDS011;34607;48.520;-1.330;2023-02-19T18:37:14;19.83;;;8.40;;
48795;SDS011;34607;48.520;-1.330;2023-02-19T18:39:41;24.17;;;12.40;;
48795;SDS011;34607;48.520;-1.330;2023-02-19T18:42:10;30.85;;;14.38;;
48795;SDS011;34607;48.520;-1.330;2023-02-19T18:44:38;23.20;;;11.27;;
48795;SDS011;34607;48.520;-1.330;2023-02-19T18:47:06;19.10;;;9.93;;
48795;SDS011;34607;48.520;-1.330;2023-02-19T18:49:33;17.83;;;11.00;;
48795;SDS011;34607;48.520;-1.330;2023-02-19T18:52:01;17.67;;;9.70;;
48795;SDS011;34607;48.520;-1.330;2023-02-19T18:54:28;13.10;;;8.55;;
48795;SDS011;34607;48.520;-1.330;2023-02-19T18:56:56;16.98;;;8.48;;
48795;SDS011;34607;48.520;-1.330;2023-02-19T18:59:26;13.70;;;8.43;;
48795;SDS011;34607;48.520;-1.330;2023-02-19T19:01:53;13.95;;;8.50;;
48795;SDS011;34607;48.520;-1.330;2023-02-19T19:04:20;19.65;;;10.45;;
48795;SDS011;34607;48.520;-1.330;2023-02-19T19:06:47;13.15;;;9.30;;
48795;SDS011;34607;48.520;-1.330;2023-02-19T19:09:14;17.88;;;10.25;;
48795;SDS011;34607;48.520;-1.330;2023-02-19T19:11:41;17.25;;;10.00;;
48795;SDS011;34607;48.520;-1.330;2023-02-19T19:14:10;17.83;;;11.45;;
48795;SDS011;34607;48.520;-1.330;2023-02-19T19:16:39;18.35;;;11.40;;
48795;SDS011;34607;48.520;-1.330;2023-02-19T19:19:07;16.55;;;10.95;;
48795;SDS011;34607;48.520;-1.330;2023-02-19T19:21:34;18.73;;;12.57;;
48795;SDS011;34607;48.520;-1.330;2023-02-19T19:24:02;14.02;;;9.32;;
48795;SDS011;34607;48.520;-1.330;2023-02-19T19:26:29;14.93;;;10.32;;
48795;SDS011;34607;48.520;-1.330;2023-02-19T19:28:56;16.33;;;9.25;;
48795;SDS011;34607;48.520;-1.330;2023-02-19T19:31:23;15.73;;;9.73;;
48795;SDS011;34607;48.520;-1.330;2023-02-19T19:33:52;14.05;;;9.63;;
48795;SDS011;34607;48.520;-1.330;2023-02-19T19:36:20;16.30;;;11.57;;
48795;SDS011;34607;48.520;-1.330;2023-02-19T19:38:48;14.02;;;12.07;;
48795;SDS011;34607;48.520;-1.330;2023-02-19T19:41:16;18.00;;;13.02;;
48795;SDS011;34607;48.520;-1.330;2023-02-19T19:43:44;20.02;;;13.60;;
48795;SDS011;34607;48.520;-1.330;2023-02-19T19:46:11;18.73;;;11.50;;
48795;SDS011;34607;48.520;-1.330;2023-02-19T19:48:43;15.95;;;11.70;;
48795;SDS011;34607;48.520;-1.330;2023-02-19T19:51:12;19.65;;;11.45;;
48795;SDS011;34607;48.520;-1.330;2023-02-19T19:53:39;17.00;;;10.30;;
48795;SDS011;34607;48.520;-1.330;2023-02-19T19:56:07;16.23;;;9.57;;
48795;SDS011;34607;48.520;-1.330;2023-02-19T19:58:34;14.95;;;8.43;;
48795;SDS011;34607;48.520;-1.330;2023-02-19T20:01:01;15.75;;;9.40;;
48795;SDS011;34607;48.520;-1.330;2023-02-19T20:03:30;12.55;;;8.80;;
48795;SDS011;34607;48.520;-1.330;2023-02-19T20:05:57;13.27;;;9.07;;
48795;SDS011;34607;48.520;-1.330;2023-02-19T20:08:26;13.38;;;8.85;;
48795;SDS011;34607;48.520;-1.330;2023-02-19T20:10:53;14.43;;;9.75;;
48795;SDS011;34607;48.520;-1.330;2023-02-19T20:13:20;19.75;;;10.00;;
48795;SDS011;34607;48.520;-1.330;2023-02-19T20:15:49;11.95;;;8.90;;
48795;SDS011;34607;48.520;-1.330;2023-02-19T20:18:16;17.38;;;11.93;;
48795;SDS011;34607;48.520;-1.330;2023-02-19T20:20:45;13.32;;;9.30;;
48795;SDS011;34607;48.520;-1.330;2023-02-19T20:23:12;14.90;;;9.68;;
48795;SDS011;34607;48.520;-1.330;2023-02-19T20:25:40;14.88;;;10.15;;
48795;SDS011;34607;48.520;-1.330;2023-02-19T20:28:08;15.02;;;10.23;;
48795;SDS011;34607;48.520;-1.330;2023-02-19T20:30:35;13.27;;;10.27;;
48795;SDS011;34607;48.520;-1.330;2023-02-19T20:33:02;17.80;;;11.32;;
48795;SDS011;34607;48.520;-1.330;2023-02-19T20:35:29;22.52;;;12.02;;
48795;SDS011;34607;48.520;-1.330;2023-02-19T20:37:56;21.00;;;12.35;;
48795;SDS011;34607;48.520;-1.330;2023-02-19T20:40:23;15.75;;;9.85;;
48795;SDS011;34607;48.520;-1.330;2023-02-19T20:42:56;19.13;;;12.32;;
48795;SDS011;34607;48.520;-1.330;2023-02-19T20:45:25;13.45;;;10.20;;
48795;SDS011;34607;48.520;-1.330;2023-02-19T20:47:53;28.10;;;15.07;;
48795;SDS011;34607;48.520;-1.330;2023-02-19T20:50:20;23.50;;;14.05;;
48795;SDS011;34607;48.520;-1.330;2023-02-19T20:52:50;27.88;;;16.25;;
48795;SDS011;34607;48.520;-1.330;2023-02-19T20:55:17;23.42;;;16.02;;
48795;SDS011;34607;48.520;-1.330;2023-02-19T20:57:45;25.05;;;12.02;;
48795;SDS011;34607;48.520;-1.330;2023-02-19T21:00:13;23.33;;;14.98;;
48795;SDS011;34607;48.520;-1.330;2023-02-19T21:02:41;23.25;;;13.50;;
48795;SDS011;34607;48.520;-1.330;2023-02-19T21:05:09;20.63;;;13.60;;
48795;SDS011;34607;48.520;-1.330;2023-02-19T21:07:36;21.10;;;13.88;;
48795;SDS011;34607;48.520;-1.330;2023-02-19T21:10:03;26.33;;;15.43;;
48795;SDS011;34607;48.520;-1.330;2023-02-19T21:12:31;24.00;;;13.73;;
48795;SDS011;34607;48.520;-1.330;2023-02-19T21:14:58;20.67;;;13.40;;
48795;SDS011;34607;48.520;-1.330;2023-02-19T21:17:26;27.40;;;14.27;;
48795;SDS011;34607;48.520;-1.330;2023-02-19T21:19:53;25.65;;;12.73;;
48795;SDS011;34607;48.520;-1.330;2023-02-19T21:22:21;19.92;;;12.10;;
48795;SDS011;34607;48.520;-1.330;2023-02-19T21:24:48;19.48;;;11.02;;
48795;SDS011;34607;48.520;-1.330;2023-02-19T21:27:17;16.42;;;9.95;;
48795;SDS011;34607;48.520;-1.330;2023-02-19T21:29:44;15.35;;;10.00;;
48795;SDS011;34607;48.520;-1.330;2023-02-19T21:32:12;16.77;;;9.88;;
48795;SDS011;34607;48.520;-1.330;2023-02-19T21:34:40;16.70;;;9.75;;
48795;SDS011;34607;48.520;-1.330;2023-02-19T21:37:08;11.35;;;8.63;;
48795;SDS011;34607;48.520;-1.330;2023-02-19T21:39:35;14.95;;;7.88;;
48795;SDS011;34607;48.520;-1.330;2023-02-19T21:42:03;15.63;;;7.22;;
48795;SDS011;34607;48.520;-1.330;2023-02-19T21:44:30;10.02;;;6.97;;
48795;SDS011;34607;48.520;-1.330;2023-02-19T21:46:57;15.57;;;8.98;;
48795;SDS011;34607;48.520;-1.330;2023-02-19T21:49:24;14.63;;;8.70;;
48795;SDS011;34607;48.520;-1.330;2023-02-19T21:51:53;15.70;;;7.93;;
48795;SDS011;34607;48.520;-1.330;2023-02-19T21:54:21;16.15;;;7.35;;
48795;SDS011;34607;48.520;-1.330;2023-02-19T21:56:50;14.50;;;8.63;;
48795;SDS011;34607;48.520;-1.330;2023-02-19T21:59:18;13.13;;;7.50;;
48795;SDS011;34607;48.520;-1.330;2023-02-19T22:01:46;17.63;;;8.70;;
48795;SDS011;34607;48.520;-1.330;2023-02-19T22:04:15;20.83;;;9.25;;
48795;SDS011;34607;48.520;-1.330;2023-02-19T22:06:44;12.23;;;7.15;;
48795;SDS011;34607;48.520;-1.330;2023-02-19T22:09:12;14.35;;;7.85;;
